sensor_id;sensor_type;location;lat;lon;timestamp;P1;durP1;ratioP1;P2;durP2;ratioP2
44462;SDS011;30170;52.190;8.702;2023-02-28T00:00:39;14.13;;;8.30;;
44462;SDS011;30170;52.190;8.702;2023-02-28T00:06:03;15.70;;;8.53;;
44462;SDS011;30170;52.190;8.702;2023-02-28T00:08:32;16.33;;;8.27;;
44462;SDS011;30170;52.190;8.702;2023-02-28T00:11:07;12.52;;;7.82;;
44462;SDS011;30170;52.190;8.702;2023-02-28T00:13:35;14.45;;;7.60;;
44462;SDS011;30170;52.190;8.702;2023-02-28T00:16:10;14.35;;;7.40;;
44462;SDS011;30170;52.190;8.702;2023-02-28T00:18:38;18.48;;;8.93;;
44462;SDS011;30170;52.190;8.702;2023-02-28T00:21:05;13.88;;;7.53;;
44462;SDS011;30170;52.190;8.702;2023-02-28T00:23:33;16.15;;;8.32;;
44462;SDS011;30170;52.190;8.702;2023-02-28T00:26:01;15.95;;;8.75;;
44462;SDS011;30170;52.190;8.702;2023-02-28T00:28:28;18.27;;;9.55;;
44462;SDS011;30170;52.190;8.702;2023-02-28T00:30:56;14.82;;;8.82;;
44462;SDS011;30170;52.190;8.702;2023-02-28T00:33:24;17.25;;;9.05;;
44462;SDS011;30170;52.190;8.702;2023-02-28T00:35:51;21.15;;;10.18;;
44462;SDS011;30170;52.190;8.702;2023-02-28T00:38:18;15.63;;;8.55;;
44462;SDS011;30170;52.190;8.702;2023-02-28T00:40:46;17.60;;;9.57;;
44462;SDS011;30170;52.190;8.702;2023-02-28T00:43:17;17.17;;;10.05;;
44462;SDS011;30170;52.190;8.702;2023-02-28T00:56:40;9.60;;;6.95;;
44462;SDS011;30170;52.190;8.702;2023-02-28T01:02:06;16.30;;;9.43;;
44462;SDS011;30170;52.190;8.702;2023-02-28T01:04:34;18.10;;;9.45;;
44462;SDS011;30170;52.190;8.702;2023-02-28T01:07:02;15.27;;;8.82;;
44462;SDS011;30170;52.190;8.702;2023-02-28T01:09:30;14.43;;;8.68;;
44462;SDS011;30170;52.190;8.702;2023-02-28T01:11:57;20.10;;;9.52;;
44462;SDS011;30170;52.190;8.702;2023-02-28T01:14:24;16.73;;;8.82;;
44462;SDS011;30170;52.190;8.702;2023-02-28T01:16:52;13.88;;;9.32;;
44462;SDS011;30170;52.190;8.702;2023-02-28T01:19:19;16.55;;;8.48;;
44462;SDS011;30170;52.190;8.702;2023-02-28T01:21:47;20.42;;;9.02;;
44462;SDS011;30170;52.190;8.702;2023-02-28T01:24:20;13.90;;;8.82;;
44462;SDS011;30170;52.190;8.702;2023-02-28T01:26:47;15.90;;;7.93;;
44462;SDS011;30170;52.190;8.702;2023-02-28T01:29:14;14.55;;;8.75;;
44462;SDS011;30170;52.190;8.702;2023-02-28T01:31:42;16.23;;;10.00;;
44462;SDS011;30170;52.190;8.702;2023-02-28T01:34:09;14.00;;;8.32;;
44462;SDS011;30170;52.190;8.702;2023-02-28T01:36:36;17.38;;;8.88;;
44462;SDS011;30170;52.190;8.702;2023-02-28T01:39:04;15.07;;;7.97;;
44462;SDS011;30170;52.190;8.702;2023-02-28T01:41:32;17.40;;;9.02;;
44462;SDS011;30170;52.190;8.702;2023-02-28T01:46:30;16.30;;;8.82;;
44462;SDS011;30170;52.190;8.702;2023-02-28T01:49:00;12.00;;;8.27;;
44462;SDS011;30170;52.190;8.702;2023-02-28T01:53:58;14.95;;;8.63;;
44462;SDS011;30170;52.190;8.702;2023-02-28T01:56:27;13.57;;;7.68;;
44462;SDS011;30170;52.190;8.702;2023-02-28T01:58:56;10.60;;;7.72;;
44462;SDS011;30170;52.190;8.702;2023-02-28T02:01:24;12.40;;;7.35;;
44462;SDS011;30170;52.190;8.702;2023-02-28T02:03:54;12.25;;;7.72;;
44462;SDS011;30170;52.190;8.702;2023-02-28T02:06:25;13.82;;;7.63;;
44462;SDS011;30170;52.190;8.702;2023-02-28T02:08:54;12.63;;;7.68;;
44462;SDS011;30170;52.190;8.702;2023-02-28T02:11:21;16.75;;;9.05;;
44462;SDS011;30170;52.190;8.702;2023-02-28T02:39:48;12.48;;;7.63;;
44462;SDS011;30170;52.190;8.702;2023-02-28T02:42:28;14.55;;;8.38;;
44462;SDS011;30170;52.190;8.702;2023-02-28T02:45:01;18.02;;;9.27;;
44462;SDS011;30170;52.190;8.702;2023-02-28T02:47:31;14.30;;;8.65;;
44462;SDS011;30170;52.190;8.702;2023-02-28T02:49:59;16.02;;;7.65;;
44462;SDS011;30170;52.190;8.702;2023-02-28T02:52:30;13.00;;;8.15;;
44462;SDS011;30170;52.190;8.702;2023-02-28T02:55:00;14.32;;;8.63;;
44462;SDS011;30170;52.190;8.702;2023-02-28T02:57:30;14.52;;;8.00;;
44462;SDS011;30170;52.190;8.702;2023-02-28T02:59:59;15.77;;;8.60;;
44462;SDS011;30170;52.190;8.702;2023-02-28T03:02:27;14.43;;;7.88;;
44462;SDS011;30170;52.190;8.702;2023-02-28T03:05:01;12.30;;;7.07;;
44462;SDS011;30170;52.190;8.702;2023-02-28T03:07:29;11.23;;;7.90;;
44462;SDS011;30170;52.190;8.702;2023-02-28T03:09:58;17.50;;;7.43;;
44462;SDS011;30170;52.190;8.702;2023-02-28T03:12:47;12.23;;;7.55;;
44462;SDS011;30170;52.190;8.702;2023-02-28T03:15:26;16.10;;;7.45;;
44462;SDS011;30170;52.190;8.702;2023-02-28T03:18:09;10.45;;;6.78;;
44462;SDS011;30170;52.190;8.702;2023-02-28T03:20:46;10.25;;;6.15;;
44462;SDS011;30170;52.190;8.702;2023-02-28T03:23:21;14.18;;;8.32;;
44462;SDS011;30170;52.190;8.702;2023-02-28T03:28:27;11.68;;;6.20;;
44462;SDS011;30170;52.190;8.702;2023-02-28T03:31:03;10.20;;;6.47;;
44462;SDS011;30170;52.190;8.702;2023-02-28T03:36:06;12.95;;;6.72;;
44462;SDS011;30170;52.190;8.702;2023-02-28T03:39:13;15.32;;;7.57;;
44462;SDS011;30170;52.190;8.702;2023-02-28T03:41:59;12.15;;;7.85;;
44462;SDS011;30170;52.190;8.702;2023-02-28T03:44:29;15.98;;;8.40;;
44462;SDS011;30170;52.190;8.702;2023-02-28T03:47:02;12.40;;;7.40;;
44462;SDS011;30170;52.190;8.702;2023-02-28T03:49:36;15.05;;;8.90;;
44462;SDS011;30170;52.190;8.702;2023-02-28T03:52:08;13.68;;;7.63;;
44462;SDS011;30170;52.190;8.702;2023-02-28T03:54:38;19.70;;;8.20;;
44462;SDS011;30170;52.190;8.702;2023-02-28T04:05:37;13.27;;;6.78;;
44462;SDS011;30170;52.190;8.702;2023-02-28T04:08:12;11.48;;;7.47;;
44462;SDS011;30170;52.190;8.702;2023-02-28T04:10:39;16.92;;;8.38;;
44462;SDS011;30170;52.190;8.702;2023-02-28T04:13:10;9.77;;;6.70;;
44462;SDS011;30170;52.190;8.702;2023-02-28T04:15:38;12.77;;;7.38;;
44462;SDS011;30170;52.190;8.702;2023-02-28T04:18:07;14.82;;;7.30;;
44462;SDS011;30170;52.190;8.702;2023-02-28T04:20:34;13.90;;;7.43;;
44462;SDS011;30170;52.190;8.702;2023-02-28T04:23:02;13.55;;;7.28;;
44462;SDS011;30170;52.190;8.702;2023-02-28T04:25:46;10.48;;;6.78;;
44462;SDS011;30170;52.190;8.702;2023-02-28T04:28:21;11.90;;;7.55;;
44462;SDS011;30170;52.190;8.702;2023-02-28T04:30:54;13.25;;;7.85;;
44462;SDS011;30170;52.190;8.702;2023-02-28T04:35:57;12.25;;;7.68;;
44462;SDS011;30170;52.190;8.702;2023-02-28T04:38:37;15.63;;;8.52;;
44462;SDS011;30170;52.190;8.702;2023-02-28T04:41:10;13.80;;;8.50;;
44462;SDS011;30170;52.190;8.702;2023-02-28T04:43:37;15.20;;;7.82;;
44462;SDS011;30170;52.190;8.702;2023-02-28T04:46:05;16.08;;;8.60;;
44462;SDS011;30170;52.190;8.702;2023-02-28T04:48:33;14.80;;;8.07;;
44462;SDS011;30170;52.190;8.702;2023-02-28T04:51:05;20.58;;;8.30;;
44462;SDS011;30170;52.190;8.702;2023-02-28T04:53:33;14.02;;;7.22;;
44462;SDS011;30170;52.190;8.702;2023-02-28T04:56:00;15.73;;;8.18;;
44462;SDS011;30170;52.190;8.702;2023-02-28T04:58:28;13.90;;;8.10;;
44462;SDS011;30170;52.190;8.702;2023-02-28T05:01:03;13.35;;;8.20;;
44462;SDS011;30170;52.190;8.702;2023-02-28T05:03:31;15.48;;;8.02;;
44462;SDS011;30170;52.190;8.702;2023-02-28T05:05:58;18.77;;;9.40;;
44462;SDS011;30170;52.190;8.702;2023-02-28T05:08:25;17.85;;;8.57;;
44462;SDS011;30170;52.190;8.702;2023-02-28T05:10:55;16.20;;;8.60;;
44462;SDS011;30170;52.190;8.702;2023-02-28T05:13:25;18.58;;;8.52;;
44462;SDS011;30170;52.190;8.702;2023-02-28T05:15:52;28.30;;;11.77;;
44462;SDS011;30170;52.190;8.702;2023-02-28T05:18:19;22.38;;;11.20;;
44462;SDS011;30170;52.190;8.702;2023-02-28T05:20:47;23.35;;;10.73;;
44462;SDS011;30170;52.190;8.702;2023-02-28T05:23:15;28.98;;;13.88;;
44462;SDS011;30170;52.190;8.702;2023-02-28T05:25:44;37.42;;;17.52;;
44462;SDS011;30170;52.190;8.702;2023-02-28T05:28:13;33.70;;;15.48;;
44462;SDS011;30170;52.190;8.702;2023-02-28T05:30:40;41.58;;;17.05;;
44462;SDS011;30170;52.190;8.702;2023-02-28T05:33:14;38.67;;;16.65;;
44462;SDS011;30170;52.190;8.702;2023-02-28T05:35:41;30.02;;;12.25;;
44462;SDS011;30170;52.190;8.702;2023-02-28T05:38:09;24.70;;;11.13;;
44462;SDS011;30170;52.190;8.702;2023-02-28T05:40:38;23.60;;;11.82;;
44462;SDS011;30170;52.190;8.702;2023-02-28T05:43:07;23.23;;;10.85;;
44462;SDS011;30170;52.190;8.702;2023-02-28T05:45:38;19.88;;;8.95;;
44462;SDS011;30170;52.190;8.702;2023-02-28T05:48:06;22.35;;;8.73;;
44462;SDS011;30170;52.190;8.702;2023-02-28T05:50:33;22.83;;;9.25;;
44462;SDS011;30170;52.190;8.702;2023-02-28T05:53:00;15.45;;;8.98;;
44462;SDS011;30170;52.190;8.702;2023-02-28T05:55:28;22.33;;;9.85;;
44462;SDS011;30170;52.190;8.702;2023-02-28T05:57:55;14.82;;;8.52;;
44462;SDS011;30170;52.190;8.702;2023-02-28T06:00:22;16.13;;;7.72;;
44462;SDS011;30170;52.190;8.702;2023-02-28T06:02:50;17.73;;;8.07;;
44462;SDS011;30170;52.190;8.702;2023-02-28T06:05:22;15.98;;;8.13;;
44462;SDS011;30170;52.190;8.702;2023-02-28T06:07:49;16.48;;;8.45;;
44462;SDS011;30170;52.190;8.702;2023-02-28T06:10:16;19.67;;;8.60;;
44462;SDS011;30170;52.190;8.702;2023-02-28T06:12:44;17.95;;;9.77;;
44462;SDS011;30170;52.190;8.702;2023-02-28T06:15:12;18.67;;;9.38;;
44462;SDS011;30170;52.190;8.702;2023-02-28T06:17:40;15.52;;;8.23;;
44462;SDS011;30170;52.190;8.702;2023-02-28T06:20:11;15.88;;;8.18;;
44462;SDS011;30170;52.190;8.702;2023-02-28T06:22:41;13.43;;;7.97;;
44462;SDS011;30170;52.190;8.702;2023-02-28T06:25:09;12.95;;;7.57;;
44462;SDS011;30170;52.190;8.702;2023-02-28T06:27:36;16.38;;;8.38;;
44462;SDS011;30170;52.190;8.702;2023-02-28T06:30:03;18.33;;;9.40;;
44462;SDS011;30170;52.190;8.702;2023-02-28T06:32:31;18.85;;;8.95;;
44462;SDS011;30170;52.190;8.702;2023-02-28T06:34:58;18.45;;;8.70;;
44462;SDS011;30170;52.190;8.702;2023-02-28T06:37:25;15.93;;;8.52;;
44462;SDS011;30170;52.190;8.702;2023-02-28T06:39:53;17.23;;;8.98;;
44462;SDS011;30170;52.190;8.702;2023-02-28T06:42:24;13.18;;;8.57;;
44462;SDS011;30170;52.190;8.702;2023-02-28T06:44:55;16.42;;;8.30;;
44462;SDS011;30170;52.190;8.702;2023-02-28T06:47:23;16.88;;;8.65;;
44462;SDS011;30170;52.190;8.702;2023-02-28T06:49:54;31.83;;;14.05;;
44462;SDS011;30170;52.190;8.702;2023-02-28T06:52:27;19.30;;;9.85;;
44462;SDS011;30170;52.190;8.702;2023-02-28T06:54:54;20.52;;;9.50;;
44462;SDS011;30170;52.190;8.702;2023-02-28T06:57:29;15.57;;;9.40;;
44462;SDS011;30170;52.190;8.702;2023-02-28T07:00:04;16.67;;;8.93;;
44462;SDS011;30170;52.190;8.702;2023-02-28T07:08:03;15.45;;;9.35;;
44462;SDS011;30170;52.190;8.702;2023-02-28T07:10:32;19.08;;;10.02;;
44462;SDS011;30170;52.190;8.702;2023-02-28T07:13:01;16.58;;;9.27;;
44462;SDS011;30170;52.190;8.702;2023-02-28T07:15:30;20.00;;;9.45;;
44462;SDS011;30170;52.190;8.702;2023-02-28T07:17:57;15.10;;;9.23;;
44462;SDS011;30170;52.190;8.702;2023-02-28T07:20:25;18.83;;;8.88;;
44462;SDS011;30170;52.190;8.702;2023-02-28T07:22:52;15.68;;;8.75;;
44462;SDS011;30170;52.190;8.702;2023-02-28T07:25:23;19.35;;;10.45;;
44462;SDS011;30170;52.190;8.702;2023-02-28T07:27:52;17.08;;;10.98;;
44462;SDS011;30170;52.190;8.702;2023-02-28T07:30:20;21.80;;;11.13;;
44462;SDS011;30170;52.190;8.702;2023-02-28T07:32:47;21.63;;;12.40;;
44462;SDS011;30170;52.190;8.702;2023-02-28T07:35:16;20.20;;;10.82;;
44462;SDS011;30170;52.190;8.702;2023-02-28T07:37:43;18.50;;;9.85;;
44462;SDS011;30170;52.190;8.702;2023-02-28T07:40:11;18.83;;;10.07;;
44462;SDS011;30170;52.190;8.702;2023-02-28T07:42:38;22.65;;;11.70;;
44462;SDS011;30170;52.190;8.702;2023-02-28T07:45:06;19.65;;;11.98;;
44462;SDS011;30170;52.190;8.702;2023-02-28T07:47:34;23.17;;;11.85;;
44462;SDS011;30170;52.190;8.702;2023-02-28T07:50:01;22.77;;;11.13;;
44462;SDS011;30170;52.190;8.702;2023-02-28T07:52:29;19.13;;;11.60;;
44462;SDS011;30170;52.190;8.702;2023-02-28T07:54:56;28.63;;;16.77;;
44462;SDS011;30170;52.190;8.702;2023-02-28T07:57:23;33.25;;;15.95;;
44462;SDS011;30170;52.190;8.702;2023-02-28T07:59:52;25.30;;;13.80;;
44462;SDS011;30170;52.190;8.702;2023-02-28T08:02:20;20.98;;;11.82;;
44462;SDS011;30170;52.190;8.702;2023-02-28T08:04:47;19.13;;;11.05;;
44462;SDS011;30170;52.190;8.702;2023-02-28T08:07:16;19.52;;;11.57;;
44462;SDS011;30170;52.190;8.702;2023-02-28T08:09:44;21.65;;;11.82;;
44462;SDS011;30170;52.190;8.702;2023-02-28T08:12:11;21.52;;;13.30;;
44462;SDS011;30170;52.190;8.702;2023-02-28T08:14:39;18.67;;;11.82;;
44462;SDS011;30170;52.190;8.702;2023-02-28T08:17:06;20.65;;;11.18;;
44462;SDS011;30170;52.190;8.702;2023-02-28T08:19:33;22.15;;;11.63;;
44462;SDS011;30170;52.190;8.702;2023-02-28T08:22:01;15.82;;;11.38;;
44462;SDS011;30170;52.190;8.702;2023-02-28T08:24:28;19.02;;;12.30;;
44462;SDS011;30170;52.190;8.702;2023-02-28T08:26:56;16.95;;;11.18;;
44462;SDS011;30170;52.190;8.702;2023-02-28T08:29:25;21.45;;;10.85;;
44462;SDS011;30170;52.190;8.702;2023-02-28T08:31:53;16.33;;;10.48;;
44462;SDS011;30170;52.190;8.702;2023-02-28T08:34:20;17.65;;;9.38;;
44462;SDS011;30170;52.190;8.702;2023-02-28T08:36:47;17.45;;;10.93;;
44462;SDS011;30170;52.190;8.702;2023-02-28T08:39:15;18.77;;;10.35;;
44462;SDS011;30170;52.190;8.702;2023-02-28T08:41:42;15.63;;;9.32;;
44462;SDS011;30170;52.190;8.702;2023-02-28T08:44:10;13.55;;;8.70;;
44462;SDS011;30170;52.190;8.702;2023-02-28T08:46:37;18.77;;;9.80;;
44462;SDS011;30170;52.190;8.702;2023-02-28T08:49:05;16.70;;;10.93;;
44462;SDS011;30170;52.190;8.702;2023-02-28T08:51:33;17.58;;;9.70;;
44462;SDS011;30170;52.190;8.702;2023-02-28T08:54:00;17.48;;;10.10;;
44462;SDS011;30170;52.190;8.702;2023-02-28T08:56:27;15.13;;;10.52;;
44462;SDS011;30170;52.190;8.702;2023-02-28T08:58:55;19.60;;;9.68;;
44462;SDS011;30170;52.190;8.702;2023-02-28T09:01:27;14.57;;;8.23;;
44462;SDS011;30170;52.190;8.702;2023-02-28T09:03:55;13.43;;;7.45;;
44462;SDS011;30170;52.190;8.702;2023-02-28T09:06:24;13.65;;;7.20;;
44462;SDS011;30170;52.190;8.702;2023-02-28T09:08:52;10.18;;;6.90;;
44462;SDS011;30170;52.190;8.702;2023-02-28T09:11:20;17.52;;;10.15;;
44462;SDS011;30170;52.190;8.702;2023-02-28T09:13:47;8.40;;;5.80;;
44462;SDS011;30170;52.190;8.702;2023-02-28T09:16:15;13.25;;;8.00;;
44462;SDS011;30170;52.190;8.702;2023-02-28T09:18:43;11.23;;;5.47;;
44462;SDS011;30170;52.190;8.702;2023-02-28T09:21:11;7.13;;;4.93;;
44462;SDS011;30170;52.190;8.702;2023-02-28T09:23:40;7.45;;;4.90;;
44462;SDS011;30170;52.190;8.702;2023-02-28T09:26:12;10.02;;;4.50;;
44462;SDS011;30170;52.190;8.702;2023-02-28T09:28:40;6.57;;;4.25;;
44462;SDS011;30170;52.190;8.702;2023-02-28T09:31:10;6.88;;;4.70;;
44462;SDS011;30170;52.190;8.702;2023-02-28T09:33:38;8.77;;;5.43;;
44462;SDS011;30170;52.190;8.702;2023-02-28T09:36:06;7.70;;;4.82;;
44462;SDS011;30170;52.190;8.702;2023-02-28T09:38:33;7.80;;;4.45;;
44462;SDS011;30170;52.190;8.702;2023-02-28T09:41:03;6.88;;;4.60;;
44462;SDS011;30170;52.190;8.702;2023-02-28T09:43:49;8.10;;;4.82;;
44462;SDS011;30170;52.190;8.702;2023-02-28T09:48:45;6.63;;;4.15;;
44462;SDS011;30170;52.190;8.702;2023-02-28T09:51:28;7.03;;;3.70;;
44462;SDS011;30170;52.190;8.702;2023-02-28T09:54:03;8.35;;;3.40;;
44462;SDS011;30170;52.190;8.702;2023-02-28T09:56:32;5.07;;;3.13;;
44462;SDS011;30170;52.190;8.702;2023-02-28T09:59:05;5.97;;;3.58;;
44462;SDS011;30170;52.190;8.702;2023-02-28T10:01:39;7.72;;;2.90;;
44462;SDS011;30170;52.190;8.702;2023-02-28T10:06:50;5.95;;;2.63;;
44462;SDS011;30170;52.190;8.702;2023-02-28T10:09:21;9.43;;;2.67;;
44462;SDS011;30170;52.190;8.702;2023-02-28T10:11:50;4.22;;;2.65;;
44462;SDS011;30170;52.190;8.702;2023-02-28T10:14:23;14.00;;;3.13;;
44462;SDS011;30170;52.190;8.702;2023-02-28T10:22:01;7.75;;;2.85;;
44462;SDS011;30170;52.190;8.702;2023-02-28T10:24:46;8.57;;;3.22;;
44462;SDS011;30170;52.190;8.702;2023-02-28T10:27:19;4.20;;;2.42;;
44462;SDS011;30170;52.190;8.702;2023-02-28T10:29:50;5.05;;;2.78;;
44462;SDS011;30170;52.190;8.702;2023-02-28T10:32:20;3.90;;;2.35;;
44462;SDS011;30170;52.190;8.702;2023-02-28T10:37:39;6.05;;;3.35;;
44462;SDS011;30170;52.190;8.702;2023-02-28T10:40:07;4.97;;;2.70;;
44462;SDS011;30170;52.190;8.702;2023-02-28T10:42:55;4.43;;;2.55;;
44462;SDS011;30170;52.190;8.702;2023-02-28T10:45:23;4.90;;;2.90;;
44462;SDS011;30170;52.190;8.702;2023-02-28T10:53:05;5.43;;;3.35;;
44462;SDS011;30170;52.190;8.702;2023-02-28T10:55:34;3.88;;;2.47;;
44462;SDS011;30170;52.190;8.702;2023-02-28T10:58:02;3.58;;;2.35;;
44462;SDS011;30170;52.190;8.702;2023-02-28T11:00:33;6.18;;;2.28;;
44462;SDS011;30170;52.190;8.702;2023-02-28T11:03:04;3.25;;;2.03;;
44462;SDS011;30170;52.190;8.702;2023-02-28T11:05:49;4.45;;;2.20;;
44462;SDS011;30170;52.190;8.702;2023-02-28T11:08:16;4.15;;;2.30;;
44462;SDS011;30170;52.190;8.702;2023-02-28T11:10:44;3.65;;;2.08;;
44462;SDS011;30170;52.190;8.702;2023-02-28T11:13:19;5.18;;;2.40;;
44462;SDS011;30170;52.190;8.702;2023-02-28T11:15:51;5.45;;;2.42;;
44462;SDS011;30170;52.190;8.702;2023-02-28T11:18:29;4.95;;;2.53;;
44462;SDS011;30170;52.190;8.702;2023-02-28T11:20:57;5.47;;;2.60;;
44462;SDS011;30170;52.190;8.702;2023-02-28T11:23:26;6.38;;;2.65;;
44462;SDS011;30170;52.190;8.702;2023-02-28T11:25:54;4.25;;;2.33;;
44462;SDS011;30170;52.190;8.702;2023-02-28T11:36:30;3.25;;;2.33;;
44462;SDS011;30170;52.190;8.702;2023-02-28T11:39:00;4.05;;;3.08;;
44462;SDS011;30170;52.190;8.702;2023-02-28T11:44:10;4.75;;;2.30;;
44462;SDS011;30170;52.190;8.702;2023-02-28T11:46:44;6.43;;;3.20;;
44462;SDS011;30170;52.190;8.702;2023-02-28T11:49:25;5.43;;;2.22;;
44462;SDS011;30170;52.190;8.702;2023-02-28T11:57:23;6.30;;;2.65;;
44462;SDS011;30170;52.190;8.702;2023-02-28T12:00:06;9.07;;;4.80;;
44462;SDS011;30170;52.190;8.702;2023-02-28T12:07:49;3.00;;;1.90;;
44462;SDS011;30170;52.190;8.702;2023-02-28T12:20:53;3.40;;;2.00;;
44462;SDS011;30170;52.190;8.702;2023-02-28T12:26:14;2.35;;;1.80;;
44462;SDS011;30170;52.190;8.702;2023-02-28T12:28:44;5.07;;;1.73;;
44462;SDS011;30170;52.190;8.702;2023-02-28T12:31:26;4.38;;;1.83;;
44462;SDS011;30170;52.190;8.702;2023-02-28T12:33:59;3.35;;;1.88;;
44462;SDS011;30170;52.190;8.702;2023-02-28T12:36:27;3.00;;;1.52;;
44462;SDS011;30170;52.190;8.702;2023-02-28T12:39:02;2.53;;;1.70;;
44462;SDS011;30170;52.190;8.702;2023-02-28T12:41:37;3.58;;;1.70;;
44462;SDS011;30170;52.190;8.702;2023-02-28T12:44:13;5.22;;;2.25;;
44462;SDS011;30170;52.190;8.702;2023-02-28T12:46:44;5.95;;;1.90;;
44462;SDS011;30170;52.190;8.702;2023-02-28T12:49:22;4.43;;;1.67;;
44462;SDS011;30170;52.190;8.702;2023-02-28T12:51:51;3.80;;;1.55;;
44462;SDS011;30170;52.190;8.702;2023-02-28T12:57:02;3.70;;;1.75;;
44462;SDS011;30170;52.190;8.702;2023-02-28T12:59:36;3.83;;;1.88;;
44462;SDS011;30170;52.190;8.702;2023-02-28T13:10:37;11.00;;;5.45;;
44462;SDS011;30170;52.190;8.702;2023-02-28T13:13:04;6.78;;;2.33;;
44462;SDS011;30170;52.190;8.702;2023-02-28T13:15:35;3.40;;;2.20;;
44462;SDS011;30170;52.190;8.702;2023-02-28T13:18:19;5.28;;;2.50;;
44462;SDS011;30170;52.190;8.702;2023-02-28T13:20:54;3.22;;;1.75;;
44462;SDS011;30170;52.190;8.702;2023-02-28T13:26:07;3.85;;;2.30;;
44462;SDS011;30170;52.190;8.702;2023-02-28T13:31:20;4.03;;;2.45;;
44462;SDS011;30170;52.190;8.702;2023-02-28T13:38:49;4.18;;;2.17;;
44462;SDS011;30170;52.190;8.702;2023-02-28T13:44:00;5.88;;;2.42;;
44462;SDS011;30170;52.190;8.702;2023-02-28T13:46:28;3.63;;;2.42;;
44462;SDS011;30170;52.190;8.702;2023-02-28T13:48:56;4.15;;;2.40;;
44462;SDS011;30170;52.190;8.702;2023-02-28T13:51:44;3.45;;;2.22;;
44462;SDS011;30170;52.190;8.702;2023-02-28T13:56:50;5.03;;;2.30;;
44462;SDS011;30170;52.190;8.702;2023-02-28T13:59:45;4.07;;;2.47;;
44462;SDS011;30170;52.190;8.702;2023-02-28T14:02:20;5.80;;;3.95;;
44462;SDS011;30170;52.190;8.702;2023-02-28T14:07:27;5.18;;;3.25;;
44462;SDS011;30170;52.190;8.702;2023-02-28T14:10:03;4.25;;;2.10;;
44462;SDS011;30170;52.190;8.702;2023-02-28T14:15:26;4.55;;;2.08;;
44462;SDS011;30170;52.190;8.702;2023-02-28T14:18:03;4.00;;;2.08;;
44462;SDS011;30170;52.190;8.702;2023-02-28T14:20:32;3.45;;;2.25;;
44462;SDS011;30170;52.190;8.702;2023-02-28T14:23:04;2.53;;;1.90;;
44462;SDS011;30170;52.190;8.702;2023-02-28T14:28:04;3.58;;;2.10;;
44462;SDS011;30170;52.190;8.702;2023-02-28T14:33:23;3.20;;;2.20;;
44462;SDS011;30170;52.190;8.702;2023-02-28T14:38:30;4.60;;;2.40;;
44462;SDS011;30170;52.190;8.702;2023-02-28T14:41:00;4.88;;;1.83;;
44462;SDS011;30170;52.190;8.702;2023-02-28T14:43:29;4.80;;;1.73;;
44462;SDS011;30170;52.190;8.702;2023-02-28T14:46:00;2.97;;;2.33;;
44462;SDS011;30170;52.190;8.702;2023-02-28T14:48:28;5.13;;;2.38;;
44462;SDS011;30170;52.190;8.702;2023-02-28T14:50:56;3.08;;;2.08;;
44462;SDS011;30170;52.190;8.702;2023-02-28T14:53:30;2.42;;;1.80;;
44462;SDS011;30170;52.190;8.702;2023-02-28T14:56:04;4.45;;;1.90;;
44462;SDS011;30170;52.190;8.702;2023-02-28T14:58:33;5.05;;;2.28;;
44462;SDS011;30170;52.190;8.702;2023-02-28T15:01:02;4.38;;;2.10;;
44462;SDS011;30170;52.190;8.702;2023-02-28T15:03:33;3.22;;;1.88;;
44462;SDS011;30170;52.190;8.702;2023-02-28T15:06:04;4.25;;;2.10;;
44462;SDS011;30170;52.190;8.702;2023-02-28T15:08:32;4.60;;;2.42;;
44462;SDS011;30170;52.190;8.702;2023-02-28T15:14:05;3.10;;;1.85;;
44462;SDS011;30170;52.190;8.702;2023-02-28T15:16:30;4.32;;;2.67;;
44462;SDS011;30170;52.190;8.702;2023-02-28T15:19:00;4.80;;;2.90;;
44462;SDS011;30170;52.190;8.702;2023-02-28T15:21:34;4.63;;;2.90;;
44462;SDS011;30170;52.190;8.702;2023-02-28T15:27:12;4.18;;;3.00;;
44462;SDS011;30170;52.190;8.702;2023-02-28T15:29:49;5.15;;;2.70;;
44462;SDS011;30170;52.190;8.702;2023-02-28T15:32:30;4.32;;;2.20;;
44462;SDS011;30170;52.190;8.702;2023-02-28T15:34:58;4.43;;;2.22;;
44462;SDS011;30170;52.190;8.702;2023-02-28T15:39:54;6.25;;;2.80;;
44462;SDS011;30170;52.190;8.702;2023-02-28T15:42:23;4.38;;;2.38;;
44462;SDS011;30170;52.190;8.702;2023-02-28T15:44:50;4.00;;;2.20;;
44462;SDS011;30170;52.190;8.702;2023-02-28T15:47:19;4.30;;;2.42;;
44462;SDS011;30170;52.190;8.702;2023-02-28T15:49:48;5.70;;;3.03;;
44462;SDS011;30170;52.190;8.702;2023-02-28T15:52:38;5.70;;;3.10;;
44462;SDS011;30170;52.190;8.702;2023-02-28T15:55:11;3.75;;;2.47;;
44462;SDS011;30170;52.190;8.702;2023-02-28T15:57:39;3.80;;;2.20;;
44462;SDS011;30170;52.190;8.702;2023-02-28T16:00:10;3.85;;;2.78;;
44462;SDS011;30170;52.190;8.702;2023-02-28T16:02:38;3.45;;;2.00;;
44462;SDS011;30170;52.190;8.702;2023-02-28T16:10:06;5.07;;;2.60;;
44462;SDS011;30170;52.190;8.702;2023-02-28T16:12:34;5.80;;;2.40;;
44462;SDS011;30170;52.190;8.702;2023-02-28T16:15:06;3.78;;;2.47;;
44462;SDS011;30170;52.190;8.702;2023-02-28T16:17:35;4.25;;;2.45;;
44462;SDS011;30170;52.190;8.702;2023-02-28T16:20:16;5.38;;;2.60;;
44462;SDS011;30170;52.190;8.702;2023-02-28T16:22:43;4.95;;;2.50;;
44462;SDS011;30170;52.190;8.702;2023-02-28T16:25:16;4.55;;;2.50;;
44462;SDS011;30170;52.190;8.702;2023-02-28T16:27:44;4.10;;;2.60;;
44462;SDS011;30170;52.190;8.702;2023-02-28T16:30:21;4.68;;;2.40;;
44462;SDS011;30170;52.190;8.702;2023-02-28T16:32:50;4.45;;;2.65;;
44462;SDS011;30170;52.190;8.702;2023-02-28T16:35:18;11.82;;;5.25;;
44462;SDS011;30170;52.190;8.702;2023-02-28T16:37:46;7.57;;;3.88;;
44462;SDS011;30170;52.190;8.702;2023-02-28T16:40:17;5.60;;;3.90;;
44462;SDS011;30170;52.190;8.702;2023-02-28T16:42:47;10.95;;;6.25;;
44462;SDS011;30170;52.190;8.702;2023-02-28T16:45:17;11.27;;;9.10;;
44462;SDS011;30170;52.190;8.702;2023-02-28T16:47:45;6.45;;;4.40;;
44462;SDS011;30170;52.190;8.702;2023-02-28T16:50:22;6.75;;;4.38;;
44462;SDS011;30170;52.190;8.702;2023-02-28T16:52:50;4.97;;;3.25;;
44462;SDS011;30170;52.190;8.702;2023-02-28T16:55:22;7.28;;;3.20;;
44462;SDS011;30170;52.190;8.702;2023-02-28T16:57:54;5.53;;;3.47;;
44462;SDS011;30170;52.190;8.702;2023-02-28T17:00:22;4.50;;;2.95;;
44462;SDS011;30170;52.190;8.702;2023-02-28T17:02:50;6.82;;;3.40;;
44462;SDS011;30170;52.190;8.702;2023-02-28T17:05:18;5.53;;;3.40;;
44462;SDS011;30170;52.190;8.702;2023-02-28T17:07:46;7.55;;;3.70;;
44462;SDS011;30170;52.190;8.702;2023-02-28T17:12:41;7.28;;;3.03;;
44462;SDS011;30170;52.190;8.702;2023-02-28T17:15:09;5.75;;;3.25;;
44462;SDS011;30170;52.190;8.702;2023-02-28T17:17:36;6.20;;;3.50;;
44462;SDS011;30170;52.190;8.702;2023-02-28T17:20:04;4.13;;;2.92;;
44462;SDS011;30170;52.190;8.702;2023-02-28T17:22:32;6.05;;;3.78;;
44462;SDS011;30170;52.190;8.702;2023-02-28T17:24:59;6.45;;;3.72;;
44462;SDS011;30170;52.190;8.702;2023-02-28T17:27:26;7.25;;;4.72;;
44462;SDS011;30170;52.190;8.702;2023-02-28T17:29:54;10.18;;;4.70;;
44462;SDS011;30170;52.190;8.702;2023-02-28T17:32:21;7.63;;;4.05;;
44462;SDS011;30170;52.190;8.702;2023-02-28T17:34:48;8.82;;;3.55;;
44462;SDS011;30170;52.190;8.702;2023-02-28T17:37:16;6.03;;;3.85;;
44462;SDS011;30170;52.190;8.702;2023-02-28T17:39:43;6.38;;;3.97;;
44462;SDS011;30170;52.190;8.702;2023-02-28T17:42:10;7.05;;;4.47;;
44462;SDS011;30170;52.190;8.702;2023-02-28T17:44:38;9.05;;;4.63;;
44462;SDS011;30170;52.190;8.702;2023-02-28T17:47:05;8.40;;;4.68;;
44462;SDS011;30170;52.190;8.702;2023-02-28T17:49:32;9.23;;;5.47;;
44462;SDS011;30170;52.190;8.702;2023-02-28T17:52:00;35.97;;;15.88;;
44462;SDS011;30170;52.190;8.702;2023-02-28T17:54:27;12.82;;;5.97;;